Time;durP1;ratioP1;P1;durP2;ratioP2;P2;SDS_P1;SDS_P2;PMS_P1;PMS_P2;Temp;Humidity;BMP_temperature;BMP_pressure;BME280_temperature;BME280_humidity;BME280_pressure;Samples;Min_cycle;Max_cycle;Signal;HPM_P1;HPM_P2
2022/10/22 07:50:59;;;;;;;30.80;13.50;;;;;;;;;;100487;1325;545795;-85
2022/10/22 07:53:26;;;;;;;30.20;12.60;;;;;;;;;;102600;1301;22473;-84
2022/10/22 07:55:53;;;;;;;32.00;14.00;;;;;;;;;;102832;1298;24359;-83
2022/10/22 07:58:20;;;;;;;33.20;14.40;;;;;;;;;;102541;1300;25498;-80
2022/10/22 08:00:48;;;;;;;38.00;17.50;;;;;;;;;;102749;1316;24276;-86
2022/10/22 08:03:16;;;;;;;31.50;15.20;;;;;;;;;;102719;1300;24703;-82
2022/10/22 08:05:43;;;;;;;35.70;18.20;;;;;;;;;;102988;1291;140104;-85
2022/10/22 08:08:10;;;;;;;41.60;17.70;;;;;;;;;;102849;1314;22494;-86
2022/10/22 08:10:37;;;;;;;40.00;18.00;;;;;;;;;;102932;1313;24018;-86
2022/10/22 08:13:05;;;;;;;38.70;17.70;;;;;;;;;;102881;1314;22466;-83
2022/10/22 08:15:32;;;;;;;32.70;15.30;;;;;;;;;;102969;1313;22433;-90
2022/10/22 08:17:59;;;;;;;41.10;15.80;;;;;;;;;;103062;1299;23028;-83
2022/10/22 08:20:25;;;;;;;35.00;13.60;;;;;;;;;;103573;1288;22560;-83
2022/10/22 08:22:52;;;;;;;35.40;14.40;;;;;;;;;;103804;1289;22599;-81
2022/10/22 08:25:19;;;;;;;36.50;14.70;;;;;;;;;;103730;1289;22464;-87
2022/10/22 08:27:45;;;;;;;34.60;14.10;;;;;;;;;;103568;1306;24292;-86
2022/10/22 08:30:12;;;;;;;38.60;15.20;;;;;;;;;;103711;1287;25320;-81
2022/10/22 08:32:39;;;;;;;34.80;14.60;;;;;;;;;;103712;1288;25302;-85
2022/10/22 08:35:06;;;;;;;30.60;14.00;;;;;;;;;;103570;1281;25372;-83
2022/10/22 08:37:33;;;;;;;37.30;14.90;;;;;;;;;;103753;1304;24252;-88
2022/10/22 08:40:00;;;;;;;29.00;13.50;;;;;;;;;;103560;1282;22508;-86
2022/10/22 08:42:37;;;;;;;31.50;13.70;;;;;;;;;;103775;1285;22508;-84
2022/10/22 08:45:11;;;;;;;30.10;13.60;;;;;;;;;;103521;1285;22487;-82
2022/10/22 08:47:58;;;;;;;32.90;14.10;;;;;;;;;;103543;1291;23063;-81
2022/10/22 08:50:45;;;;;;;31.00;14.90;;;;;;;;;;103731;1289;25285;-83
2022/10/22 08:53:14;;;;;;;32.60;15.40;;;;;;;;;;103742;1289;22598;-87
2022/10/22 12:13:57;;;;;;;17.90;11.90;;;;;;;;;;98963;1326;545145;-86
2022/10/22 12:16:25;;;;;;;24.00;13.30;;;;;;;;;;101943;1317;24414;-82
2022/10/22 12:19:24;;;;;;;19.90;11.90;;;;;;;;;;101972;1311;25248;-86
2022/10/22 12:21:52;;;;;;;20.80;11.90;;;;;;;;;;101161;1310;24307;-85
2022/10/22 12:24:21;;;;;;;25.20;13.20;;;;;;;;;;101149;1334;25550;-81
2022/10/22 12:26:51;;;;;;;25.70;13.90;;;;;;;;;;101073;1319;144395;-82
2022/10/22 12:29:19;;;;;;;28.30;14.00;;;;;;;;;;101302;1330;25313;-81
2022/10/22 12:31:46;;;;;;;26.20;13.10;;;;;;;;;;101337;1330;22642;-87
2022/10/22 12:34:14;;;;;;;25.10;12.60;;;;;;;;;;101273;1331;22514;-89
2022/10/22 12:36:41;;;;;;;23.40;13.10;;;;;;;;;;101233;1331;22474;-89
2022/10/22 12:39:19;;;;;;;20.60;11.70;;;;;;;;;;101811;1324;22562;-86
2022/10/22 12:41:45;;;;;;;22.70;12.70;;;;;;;;;;101848;1322;23959;-84
2022/10/22 12:44:13;;;;;;;23.70;13.20;;;;;;;;;;101924;1324;23172;-90
2022/10/22 12:46:41;;;;;;;24.30;13.00;;;;;;;;;;101744;1307;22575;-88
2022/10/22 12:49:19;;;;;;;26.80;15.00;;;;;;;;;;101704;1324;25321;-87
2022/10/22 12:51:46;;;;;;;32.00;17.40;;;;;;;;;;101842;1324;22733;-85
2022/10/22 12:54:19;;;;;;;29.00;16.50;;;;;;;;;;101761;1309;22489;-87
2022/10/22 12:56:46;;;;;;;38.60;21.80;;;;;;;;;;101855;1299;24293;-89
2022/10/22 12:59:16;;;;;;;125.50;69.50;;;;;;;;;;102866;1291;22858;-86
2022/10/22 13:01:43;;;;;;;113.60;64.70;;;;;;;;;;102485;1304;21814;-85
2022/10/22 13:04:16;;;;;;;88.80;48.40;;;;;;;;;;102717;1294;22597;-87
2022/10/22 13:06:43;;;;;;;60.80;35.40;;;;;;;;;;102719;1301;22481;-82
2022/10/22 13:09:16;;;;;;;44.70;26.60;;;;;;;;;;102556;1299;22492;-83
2022/10/22 13:11:50;;;;;;;35.70;21.70;;;;;;;;;;102491;1302;22527;-83
2022/10/22 13:14:25;;;;;;;29.90;18.00;;;;;;;;;;102619;1317;22496;-84
2022/10/22 13:17:09;;;;;;;24.30;13.70;;;;;;;;;;102511;1294;22493;-85
2022/10/22 13:19:45;;;;;;;19.80;9.00;;;;;;;;;;102663;1304;23902;-82
2022/10/22 13:22:29;;;;;;;19.80;8.50;;;;;;;;;;102819;1284;22547;-81
2022/10/22 13:24:58;;;;;;;13.60;6.60;;;;;;;;;;102615;1301;22486;-82
2022/10/22 13:27:26;;;;;;;12.20;5.80;;;;;;;;;;102543;1301;24284;-82
2022/10/22 13:29:53;;;;;;;10.50;4.80;;;;;;;;;;102540;1309;22480;-82
2022/10/22 13:32:26;;;;;;;11.50;5.30;;;;;;;;;;102694;1301;22598;-85
2022/10/22 13:34:54;;;;;;;9.70;5.00;;;;;;;;;;102748;1315;24391;-89
2022/10/22 13:37:20;;;;;;;11.40;5.70;;;;;;;;;;102748;1315;25672;-88
2022/10/22 13:39:47;;;;;;;9.20;4.50;;;;;;;;;;102583;1303;22496;-83
2022/10/22 13:42:13;;;;;;;11.40;5.10;;;;;;;;;;102523;1309;22488;-86
2022/10/22 13:44:40;;;;;;;9.10;4.20;;;;;;;;;;102831;1313;22479;-88
2022/10/22 13:47:27;;;;;;;7.60;3.80;;;;;;;;;;102516;1318;24341;-83
2022/10/22 13:49:57;;;;;;;9.70;3.80;;;;;;;;;;102739;1315;24217;-84
2022/10/22 13:52:28;;;;;;;10.60;3.70;;;;;;;;;;102695;1315;21682;-88
2022/10/22 13:54:54;;;;;;;8.70;3.80;;;;;;;;;;102710;1296;25339;-83
2022/10/22 13:57:21;;;;;;;8.70;3.40;;;;;;;;;;102752;1314;22477;-86
2022/10/22 13:59:47;;;;;;;8.00;2.70;;;;;;;;;;102752;1316;25699;-81
2022/10/22 14:02:15;;;;;;;10.20;4.20;;;;;;;;;;102573;1316;24395;-89
2022/10/22 14:04:41;;;;;;;11.70;5.80;;;;;;;;;;102582;1316;23682;-88
2022/10/22 14:07:12;;;;;;;16.00;8.70;;;;;;;;;;102561;1301;24251;-80
2022/10/22 14:09:39;;;;;;;23.20;10.90;;;;;;;;;;102578;1295;24322;-91
2022/10/22 14:12:10;;;;;;;35.20;17.40;;;;;;;;;;102595;1303;22494;-80
2022/10/22 14:14:37;;;;;;;82.20;36.70;;;;;;;;;;102284;1321;22469;-83
2022/10/22 14:17:05;;;;;;;25.10;12.30;;;;;;;;;;102615;1314;21694;-80
2022/10/22 14:19:31;;;;;;;31.80;14.80;;;;;;;;;;102587;1315;25297;-84
2022/10/22 14:21:58;;;;;;;63.20;29.70;;;;;;;;;;102700;1315;23769;-79
2022/10/22 14:24:24;;;;;;;71.20;32.70;;;;;;;;;;102788;1315;25577;-80
2022/10/22 14:26:51;;;;;;;32.00;9.90;;;;;;;;;;102632;1317;22473;-84
2022/10/22 14:29:18;;;;;;;26.30;8.10;;;;;;;;;;102374;1318;22475;-86
2022/10/22 14:31:45;;;;;;;18.00;6.70;;;;;;;;;;106267;1306;22055;-80
2022/10/22 14:34:12;;;;;;;12.50;4.90;;;;;;;;;;106097;1317;22834;-80
2022/10/22 14:36:39;;;;;;;9.60;3.80;;;;;;;;;;106292;1297;22811;-80
2022/10/22 14:39:05;;;;;;;11.70;4.80;;;;;;;;;;105970;1316;22158;-80
2022/10/22 14:41:33;;;;;;;17.90;8.10;;;;;;;;;;106213;1315;22497;-81
2022/10/22 14:44:00;;;;;;;12.40;6.50;;;;;;;;;;106209;1315;22093;-81
2022/10/22 14:46:27;;;;;;;8.60;3.80;;;;;;;;;;106093;1316;22113;-80
2022/10/22 14:48:53;;;;;;;15.40;9.10;;;;;;;;;;105879;1318;22104;-81
2022/10/22 14:51:21;;;;;;;14.70;7.50;;;;;;;;;;106330;1309;22184;-80
2022/10/22 14:53:48;;;;;;;19.70;13.70;;;;;;;;;;106493;1309;21982;-80
2022/10/22 14:56:16;;;;;;;10.40;6.80;;;;;;;;;;106094;1317;22121;-80
2022/10/22 14:58:43;;;;;;;8.80;4.50;;;;;;;;;;105933;1313;22094;-80
2022/10/22 15:01:09;;;;;;;19.00;12.20;;;;;;;;;;106079;1315;22083;-81
2022/10/22 15:03:36;;;;;;;10.40;5.40;;;;;;;;;;106013;1318;22038;-81
2022/10/22 15:06:03;;;;;;;11.50;5.60;;;;;;;;;;106157;1313;22069;-80
2022/10/22 15:08:30;;;;;;;11.30;6.20;;;;;;;;;;106033;1315;22240;-80
2022/10/22 15:11:01;;;;;;;12.00;6.90;;;;;;;;;;105689;1319;22099;-80
2022/10/22 15:13:28;;;;;;;10.60;4.60;;;;;;;;;;105603;1321;22138;-80
2022/10/22 15:15:56;;;;;;;11.60;5.50;;;;;;;;;;105840;1320;22094;-80
2022/10/22 15:18:23;;;;;;;11.30;6.80;;;;;;;;;;105682;1321;22082;-80
2022/10/22 15:20:59;;;;;;;10.80;6.50;;;;;;;;;;105795;1319;22647;-80
2022/10/22 15:23:26;;;;;;;10.30;4.80;;;;;;;;;;105829;1320;22043;-80
2022/10/22 15:25:53;;;;;;;16.00;7.30;;;;;;;;;;105804;1320;22103;-80
2022/10/22 15:28:20;;;;;;;13.50;6.80;;;;;;;;;;105827;1318;22873;-80
2022/10/22 15:30:57;;;;;;;15.10;6.70;;;;;;;;;;106304;1298;22125;-80
2022/10/22 15:33:24;;;;;;;8.90;4.80;;;;;;;;;;105666;1318;22096;-80
2022/10/22 15:35:52;;;;;;;8.10;3.80;;;;;;;;;;105791;1318;22088;-80
2022/10/22 15:38:19;;;;;;;11.90;4.80;;;;;;;;;;106283;1302;22143;-80
2022/10/22 15:40:45;;;;;;;11.60;6.30;;;;;;;;;;105559;1321;22895;-80
2022/10/22 15:43:12;;;;;;;10.20;3.80;;;;;;;;;;106124;1309;22054;-81
2022/10/22 15:45:39;;;;;;;9.50;4.60;;;;;;;;;;105676;1320;22154;-81
2022/10/22 15:48:06;;;;;;;9.80;4.60;;;;;;;;;;105672;1320;22119;-80
2022/10/22 15:50:36;;;;;;;13.40;7.20;;;;;;;;;;105790;1318;22112;-80
2022/10/22 15:53:02;;;;;;;8.80;4.10;;;;;;;;;;105676;1318;22054;-80
2022/10/22 15:55:29;;;;;;;11.00;4.70;;;;;;;;;;106232;1311;22822;-80
2022/10/22 15:57:56;;;;;;;11.60;5.70;;;;;;;;;;105951;1318;22083;-80
2022/10/22 16:00:23;;;;;;;8.30;3.40;;;;;;;;;;105933;1318;22103;-81
2022/10/22 16:02:52;;;;;;;10.60;6.10;;;;;;;;;;105823;1318;22567;-80
2022/10/22 16:05:19;;;;;;;16.90;10.80;;;;;;;;;;105681;1318;22109;-80
2022/10/22 16:07:45;;;;;;;13.50;9.00;;;;;;;;;;105955;1318;22061;-81
2022/10/22 16:10:12;;;;;;;16.10;10.10;;;;;;;;;;105936;1318;22085;-81
2022/10/22 16:12:39;;;;;;;14.00;7.70;;;;;;;;;;106066;1315;22060;-80
2022/10/22 16:15:07;;;;;;;15.20;9.20;;;;;;;;;;106124;1316;22057;-81
2022/10/22 16:17:33;;;;;;;11.60;5.90;;;;;;;;;;106603;1306;22109;-81
2022/10/22 16:20:00;;;;;;;19.60;9.50;;;;;;;;;;106575;1308;22068;-80
2022/10/22 16:22:26;;;;;;;25.80;11.90;;;;;;;;;;106102;1318;22843;-80
2022/10/22 16:24:53;;;;;;;20.80;9.20;;;;;;;;;;106092;1317;22105;-80
2022/10/22 16:27:19;;;;;;;15.00;7.50;;;;;;;;;;105924;1317;22074;-80
2022/10/22 16:29:46;;;;;;;10.40;5.10;;;;;;;;;;106121;1315;22115;-80
2022/10/22 16:32:15;;;;;;;13.20;7.80;;;;;;;;;;106001;1316;22123;-80
2022/10/22 16:34:42;;;;;;;10.50;4.90;;;;;;;;;;106009;1315;22118;-80
2022/10/22 16:37:09;;;;;;;15.60;8.90;;;;;;;;;;106201;1315;22192;-81
2022/10/22 16:39:36;;;;;;;11.50;5.80;;;;;;;;;;106166;1315;22069;-80
2022/10/22 16:42:04;;;;;;;34.50;14.80;;;;;;;;;;106316;1309;22131;-80
2022/10/22 16:44:31;;;;;;;54.30;22.20;;;;;;;;;;105923;1318;22812;-79
2022/10/22 16:46:57;;;;;;;45.20;19.50;;;;;;;;;;106196;1311;22075;-81
2022/10/22 16:49:24;;;;;;;18.10;10.50;;;;;;;;;;105916;1317;22084;-80
2022/10/22 16:51:52;;;;;;;28.90;20.60;;;;;;;;;;106190;1315;22069;-80
2022/10/22 16:54:20;;;;;;;46.50;27.30;;;;;;;;;;106197;1315;22062;-81
2022/10/22 16:56:47;;;;;;;23.50;17.20;;;;;;;;;;105869;1317;22743;-80
2022/10/22 16:59:14;;;;;;;20.70;13.30;;;;;;;;;;106010;1315;22116;-80
2022/10/22 17:01:41;;;;;;;21.90;10.20;;;;;;;;;;105738;1318;22091;-80
2022/10/22 17:04:07;;;;;;;11.20;6.30;;;;;;;;;;106305;1308;22081;-79
2022/10/22 17:06:34;;;;;;;10.90;5.40;;;;;;;;;;106098;1309;22054;-80
2022/10/22 17:09:02;;;;;;;10.80;5.30;;;;;;;;;;105845;1321;22063;-80
2022/10/22 17:11:33;;;;;;;11.00;5.70;;;;;;;;;;105765;1317;22252;-80
2022/10/22 17:14:01;;;;;;;17.20;10.10;;;;;;;;;;105989;1317;22108;-80
2022/10/22 17:16:28;;;;;;;10.60;5.10;;;;;;;;;;105987;1316;22169;-80
2022/10/22 17:18:55;;;;;;;11.10;4.60;;;;;;;;;;106003;1317;22119;-79
2022/10/22 17:21:22;;;;;;;14.60;5.80;;;;;;;;;;105867;1320;22799;-80
2022/10/22 17:23:54;;;;;;;12.40;5.80;;;;;;;;;;106174;1316;22745;-80
2022/10/22 17:26:22;;;;;;;12.40;5.30;;;;;;;;;;106159;1315;21946;-80
2022/10/22 17:28:50;;;;;;;11.40;4.80;;;;;;;;;;106283;1315;22089;-80
2022/10/22 17:31:17;;;;;;;12.20;6.40;;;;;;;;;;106595;1308;22057;-80
2022/10/22 17:33:44;;;;;;;10.90;5.30;;;;;;;;;;106318;1313;22154;-80
2022/10/22 17:36:12;;;;;;;10.80;4.90;;;;;;;;;;106279;1314;22080;-79
2022/10/22 17:38:40;;;;;;;15.30;6.10;;;;;;;;;;106277;1313;22077;-80
2022/10/22 17:41:07;;;;;;;16.80;6.80;;;;;;;;;;106605;1306;22050;-80
2022/10/22 17:43:34;;;;;;;12.30;6.50;;;;;;;;;;106150;1317;22095;-80
2022/10/22 17:46:09;;;;;;;19.50;7.60;;;;;;;;;;106602;1308;22083;-80
2022/10/22 17:48:36;;;;;;;16.20;6.90;;;;;;;;;;105989;1317;22039;-80
2022/10/22 17:51:07;;;;;;;14.40;6.80;;;;;;;;;;106141;1313;22140;-80
2022/10/22 17:53:33;;;;;;;11.40;5.30;;;;;;;;;;106327;1314;22143;-80
2022/10/22 17:56:01;;;;;;;13.80;5.00;;;;;;;;;;106159;1314;22127;-80
2022/10/22 17:58:29;;;;;;;13.70;5.30;;;;;;;;;;106127;1304;21702;-79
2022/10/22 18:00:56;;;;;;;14.50;7.40;;;;;;;;;;106244;1313;22344;-79
2022/10/22 18:03:23;;;;;;;12.30;6.90;;;;;;;;;;105884;1320;22104;-80
2022/10/22 18:05:49;;;;;;;11.40;6.50;;;;;;;;;;106008;1315;22095;-79
2022/10/22 18:08:16;;;;;;;17.40;7.80;;;;;;;;;;106605;1308;22096;-80
2022/10/22 18:10:43;;;;;;;14.40;7.80;;;;;;;;;;106128;1317;22167;-80
2022/10/22 18:13:10;;;;;;;12.80;7.30;;;;;;;;;;106245;1306;22116;-79
2022/10/22 18:15:37;;;;;;;16.80;8.50;;;;;;;;;;106141;1317;22136;-80
2022/10/22 18:18:03;;;;;;;15.50;9.00;;;;;;;;;;106265;1307;22066;-79
2022/10/22 18:20:30;;;;;;;21.80;10.80;;;;;;;;;;106270;1316;22160;-78
2022/10/22 18:22:57;;;;;;;19.80;11.30;;;;;;;;;;106198;1309;21761;-79
2022/10/22 18:25:24;;;;;;;20.10;11.20;;;;;;;;;;106121;1316;22693;-79
2022/10/22 18:27:51;;;;;;;23.00;13.30;;;;;;;;;;106297;1305;22035;-80
2022/10/22 18:30:18;;;;;;;22.40;12.10;;;;;;;;;;106274;1316;22299;-80
2022/10/22 18:32:44;;;;;;;22.90;11.70;;;;;;;;;;106126;1317;22044;-80
2022/10/22 18:35:11;;;;;;;20.80;12.20;;;;;;;;;;106217;1315;22792;-80
2022/10/22 18:37:38;;;;;;;27.10;15.50;;;;;;;;;;106208;1315;21994;-79
2022/10/22 18:40:05;;;;;;;20.00;11.90;;;;;;;;;;106019;1315;22758;-79
2022/10/22 18:42:33;;;;;;;16.80;9.60;;;;;;;;;;106225;1315;22159;-78
2022/10/22 18:45:00;;;;;;;17.00;8.90;;;;;;;;;;106209;1313;22125;-79
2022/10/22 18:47:28;;;;;;;14.50;7.40;;;;;;;;;;106008;1317;22107;-79
2022/10/22 18:49:54;;;;;;;14.70;8.40;;;;;;;;;;106144;1316;22712;-79
2022/10/22 18:52:21;;;;;;;15.90;7.80;;;;;;;;;;106618;1307;22088;-79
2022/10/22 18:54:48;;;;;;;14.50;7.50;;;;;;;;;;106592;1308;22081;-79
2022/10/22 18:57:14;;;;;;;15.60;8.30;;;;;;;;;;106602;1308;22096;-80
2022/10/22 18:59:41;;;;;;;16.00;7.80;;;;;;;;;;106121;1317;22483;-80
2022/10/22 19:02:09;;;;;;;15.00;7.70;;;;;;;;;;106609;1308;22342;-80
2022/10/22 19:04:35;;;;;;;17.60;9.50;;;;;;;;;;105953;1315;22105;-79
2022/10/22 19:07:03;;;;;;;16.10;8.00;;;;;;;;;;106058;1315;22118;-79
2022/10/22 19:09:30;;;;;;;17.90;9.90;;;;;;;;;;106026;1316;22616;-80
2022/10/22 19:11:57;;;;;;;14.00;7.20;;;;;;;;;;106492;1303;22381;-80
2022/10/22 19:14:24;;;;;;;15.60;7.50;;;;;;;;;;106265;1296;22573;-80
2022/10/22 19:16:52;;;;;;;15.30;7.40;;;;;;;;;;106280;1315;22158;-80
2022/10/22 19:19:19;;;;;;;14.40;7.40;;;;;;;;;;106063;1310;22065;-80
2022/10/22 19:21:47;;;;;;;14.30;7.20;;;;;;;;;;106022;1315;22069;-79
2022/10/22 19:24:14;;;;;;;18.70;9.20;;;;;;;;;;106027;1315;22071;-80
2022/10/22 19:26:41;;;;;;;16.40;7.50;;;;;;;;;;106049;1317;22812;-80
2022/10/22 19:29:12;;;;;;;14.50;7.20;;;;;;;;;;106613;1308;22059;-80
2022/10/22 19:31:40;;;;;;;15.30;7.10;;;;;;;;;;105948;1316;21975;-80
2022/10/22 19:34:07;;;;;;;16.20;8.80;;;;;;;;;;106149;1310;22066;-80
2022/10/22 19:36:34;;;;;;;17.20;9.40;;;;;;;;;;106342;1306;22614;-80
2022/10/22 19:39:01;;;;;;;15.50;8.30;;;;;;;;;;106146;1317;22724;-80
2022/10/22 19:41:31;;;;;;;15.80;8.30;;;;;;;;;;105963;1317;22828;-80
2022/10/22 19:43:58;;;;;;;22.90;11.50;;;;;;;;;;105981;1315;22494;-80
2022/10/22 19:46:26;;;;;;;18.10;9.00;;;;;;;;;;105939;1315;22134;-80
2022/10/22 19:48:55;;;;;;;16.40;8.90;;;;;;;;;;106267;1315;22083;-81
2022/10/22 19:51:23;;;;;;;14.00;7.00;;;;;;;;;;106049;1315;22307;-80
2022/10/22 19:53:56;;;;;;;13.30;7.50;;;;;;;;;;106468;1296;22903;-80
2022/10/22 19:56:23;;;;;;;12.30;6.60;;;;;;;;;;106009;1315;22160;-80
2022/10/22 19:58:50;;;;;;;12.80;6.20;;;;;;;;;;106147;1311;22060;-80
2022/10/22 20:01:17;;;;;;;11.40;5.70;;;;;;;;;;105952;1303;22111;-80
2022/10/22 20:03:45;;;;;;;9.30;4.90;;;;;;;;;;106210;1315;22124;-80
2022/10/22 20:06:13;;;;;;;11.10;5.30;;;;;;;;;;105944;1318;22167;-80
2022/10/22 20:08:41;;;;;;;10.60;5.30;;;;;;;;;;105896;1317;22095;-80
2022/10/22 20:11:11;;;;;;;16.30;8.50;;;;;;;;;;106146;1317;22066;-80
2022/10/22 20:13:38;;;;;;;19.30;9.30;;;;;;;;;;106096;1316;22085;-81
2022/10/22 20:16:05;;;;;;;15.30;7.10;;;;;;;;;;106196;1315;22086;-80
2022/10/22 20:18:33;;;;;;;20.30;9.20;;;;;;;;;;105996;1309;22068;-80
2022/10/22 20:21:05;;;;;;;15.10;7.40;;;;;;;;;;106209;1315;22576;-80
2022/10/22 20:23:33;;;;;;;14.80;7.60;;;;;;;;;;105995;1317;22806;-80
2022/10/22 20:26:00;;;;;;;14.50;8.20;;;;;;;;;;106112;1316;22675;-80
2022/10/22 20:28:28;;;;;;;14.10;7.10;;;;;;;;;;106114;1310;22068;-80
2022/10/22 20:31:06;;;;;;;12.70;6.70;;;;;;;;;;106123;1317;22661;-80
2022/10/22 20:33:34;;;;;;;14.20;7.70;;;;;;;;;;106134;1317;22189;-81
2022/10/22 20:36:03;;;;;;;13.00;6.60;;;;;;;;;;106194;1315;22104;-80
2022/10/22 20:38:31;;;;;;;14.40;7.80;;;;;;;;;;106208;1315;22059;-80
2022/10/22 20:41:13;;;;;;;16.70;8.40;;;;;;;;;;106013;1316;22258;-80
2022/10/22 20:43:43;;;;;;;15.10;8.00;;;;;;;;;;106027;1317;21957;-80
2022/10/22 20:46:18;;;;;;;15.80;8.20;;;;;;;;;;105975;1310;22073;-80
2022/10/22 20:48:47;;;;;;;15.30;7.60;;;;;;;;;;106004;1313;22094;-80
2022/10/22 20:51:13;;;;;;;14.80;6.90;;;;;;;;;;105997;1315;22081;-81
2022/10/22 20:53:41;;;;;;;14.20;7.30;;;;;;;;;;106005;1315;22792;-81
2022/10/22 20:56:09;;;;;;;14.70;7.60;;;;;;;;;;105985;1312;22781;-81
2022/10/22 20:58:37;;;;;;;15.40;8.40;;;;;;;;;;106020;1315;22092;-79
2022/10/22 21:01:09;;;;;;;15.30;7.80;;;;;;;;;;105995;1315;22097;-80
2022/10/22 21:03:36;;;;;;;15.10;7.80;;;;;;;;;;105881;1312;22047;-79
2022/10/22 21:06:05;;;;;;;16.60;8.00;;;;;;;;;;105872;1317;22089;-78
2022/10/22 21:08:33;;;;;;;15.00;7.60;;;;;;;;;;105990;1310;22074;-79
2022/10/22 21:11:02;;;;;;;16.40;8.00;;;;;;;;;;105996;1310;22798;-79
2022/10/22 21:13:32;;;;;;;15.80;7.90;;;;;;;;;;105950;1306;22113;-79
2022/10/22 21:16:11;;;;;;;16.40;8.40;;;;;;;;;;105901;1311;22833;-79
2022/10/22 21:18:40;;;;;;;16.00;8.70;;;;;;;;;;105805;1318;22180;-79
2022/10/22 21:21:10;;;;;;;15.10;8.00;;;;;;;;;;105844;1318;22080;-80
2022/10/22 21:23:39;;;;;;;16.50;8.10;;;;;;;;;;105883;1318;22212;-79
2022/10/22 21:26:08;;;;;;;15.70;8.20;;;;;;;;;;105877;1318;22065;-79
2022/10/22 21:28:38;;;;;;;14.30;7.00;;;;;;;;;;105958;1317;22107;-79
2022/10/22 21:31:08;;;;;;;15.90;7.80;;;;;;;;;;105947;1318;22004;-79
2022/10/22 21:33:39;;;;;;;13.10;7.00;;;;;;;;;;105949;1317;22116;-79
2022/10/22 21:36:08;;;;;;;15.20;7.60;;;;;;;;;;105890;1312;22125;-79
2022/10/22 21:38:37;;;;;;;14.90;7.30;;;;;;;;;;106011;1309;21956;-79
2022/10/22 21:41:08;;;;;;;15.50;7.70;;;;;;;;;;105962;1317;22242;-79
2022/10/22 21:43:38;;;;;;;17.20;7.20;;;;;;;;;;105995;1317;22698;-79
2022/10/22 21:46:26;;;;;;;13.90;7.10;;;;;;;;;;105804;1318;22063;-78
2022/10/22 21:49:03;;;;;;;13.40;6.10;;;;;;;;;;105943;1318;22081;-78
2022/10/22 21:51:34;;;;;;;11.60;5.80;;;;;;;;;;105888;1318;22169;-78
2022/10/22 21:54:04;;;;;;;11.40;5.30;;;;;;;;;;105971;1316;22062;-78
2022/10/22 21:56:35;;;;;;;12.60;5.30;;;;;;;;;;105902;1318;22134;-78
2022/10/22 21:59:06;;;;;;;11.20;5.60;;;;;;;;;;105823;1318;22820;-78
2022/10/22 22:01:35;;;;;;;15.20;5.10;;;;;;;;;;105895;1313;22128;-78
2022/10/22 22:04:04;;;;;;;9.10;4.40;;;;;;;;;;105830;1318;22021;-78
2022/10/22 22:11:39;;;;;;;13.80;6.50;;;;;;;;;;100731;1335;544801;-83
2022/10/22 22:14:05;;;;;;;11.90;5.90;;;;;;;;;;102385;1319;22509;-83
2022/10/22 22:16:32;;;;;;;17.70;8.00;;;;;;;;;;102485;1319;22496;-78
2022/10/22 22:19:03;;;;;;;15.00;7.40;;;;;;;;;;102395;1319;24443;-81
2022/10/22 22:21:30;;;;;;;16.10;7.70;;;;;;;;;;102480;1319;22887;-84
2022/10/22 22:23:57;;;;;;;17.90;8.40;;;;;;;;;;102392;1311;22869;-84
2022/10/22 22:26:25;;;;;;;14.80;8.00;;;;;;;;;;103481;1303;157827;-80
2022/10/22 22:28:52;;;;;;;15.80;8.30;;;;;;;;;;103493;1303;22599;-85
2022/10/22 22:31:23;;;;;;;15.80;8.10;;;;;;;;;;103538;1303;22930;-80
2022/10/22 22:33:56;;;;;;;14.90;8.30;;;;;;;;;;103719;1304;23156;-86
2022/10/22 22:36:22;;;;;;;16.40;9.00;;;;;;;;;;103604;1303;25351;-84
2022/10/22 22:38:52;;;;;;;17.60;8.40;;;;;;;;;;103640;1304;24413;-84
2022/10/22 22:41:18;;;;;;;17.40;8.90;;;;;;;;;;103517;1292;22549;-84
2022/10/22 22:43:45;;;;;;;14.40;7.70;;;;;;;;;;103606;1306;25315;-79
2022/10/22 22:46:12;;;;;;;19.10;9.50;;;;;;;;;;103518;1306;25501;-83
2022/10/22 22:48:39;;;;;;;18.60;9.60;;;;;;;;;;103584;1306;25270;-83
2022/10/22 22:51:06;;;;;;;16.10;7.70;;;;;;;;;;103834;1304;22476;-79
2022/10/22 22:53:33;;;;;;;17.60;9.00;;;;;;;;;;103554;1306;22486;-78
2022/10/22 22:56:07;;;;;;;18.30;8.00;;;;;;;;;;103537;1306;22465;-84
2022/10/22 22:58:35;;;;;;;18.50;7.50;;;;;;;;;;103482;1304;24249;-79
2022/10/22 23:01:12;;;;;;;15.20;8.40;;;;;;;;;;103500;1306;25274;-83
2022/10/22 23:03:39;;;;;;;16.70;8.60;;;;;;;;;;103494;1301;22463;-80
2022/10/22 23:06:06;;;;;;;15.60;8.20;;;;;;;;;;103730;1304;22467;-82
2022/10/22 23:08:33;;;;;;;15.50;8.10;;;;;;;;;;103468;1307;22457;-80
2022/10/22 23:11:00;;;;;;;16.40;7.70;;;;;;;;;;103322;1306;22451;-81
2022/10/22 23:13:27;;;;;;;15.50;8.00;;;;;;;;;;103460;1306;24702;-82
2022/10/22 23:15:53;;;;;;;14.70;7.10;;;;;;;;;;103478;1288;24271;-80
2022/10/22 23:18:20;;;;;;;18.70;8.60;;;;;;;;;;103527;1306;25505;-81
2022/10/22 23:20:46;;;;;;;16.00;8.00;;;;;;;;;;103443;1301;22565;-86
2022/10/22 23:23:13;;;;;;;15.80;8.40;;;;;;;;;;103271;1306;22475;-81
2022/10/22 23:25:40;;;;;;;16.30;8.40;;;;;;;;;;103476;1306;25387;-80
2022/10/22 23:28:06;;;;;;;15.00;8.30;;;;;;;;;;103530;1303;25318;-82
2022/10/22 23:30:33;;;;;;;15.80;7.70;;;;;;;;;;103435;1306;23022;-80
2022/10/22 23:32:59;;;;;;;15.30;8.30;;;;;;;;;;103358;1307;24331;-84
2022/10/22 23:35:26;;;;;;;16.10;7.70;;;;;;;;;;103418;1307;22472;-84
2022/10/22 23:37:52;;;;;;;17.20;7.40;;;;;;;;;;103261;1307;22533;-86
2022/10/22 23:40:19;;;;;;;14.50;7.50;;;;;;;;;;103376;1307;23851;-79
2022/10/22 23:42:45;;;;;;;14.60;7.00;;;;;;;;;;103440;1306;22525;-79
2022/10/22 23:45:12;;;;;;;14.50;7.60;;;;;;;;;;103190;1306;22548;-79
2022/10/22 23:47:38;;;;;;;14.90;7.70;;;;;;;;;;103365;1294;22480;-81
2022/10/22 23:50:05;;;;;;;15.40;7.80;;;;;;;;;;103422;1301;22503;-84
2022/10/22 23:52:32;;;;;;;13.00;7.00;;;;;;;;;;103447;1306;24525;-80
2022/10/22 23:54:58;;;;;;;14.20;7.10;;;;;;;;;;103423;1307;22552;-79
2022/10/22 23:57:25;;;;;;;14.80;7.40;;;;;;;;;;103438;1307;22468;-80
2022/10/22 23:59:51;;;;;;;15.10;8.00;;;;;;;;;;103344;1306;22469;-85
